sensor_id;sensor_type;location;lat;lon;timestamp;temperature;humidity
34829;DHT22;21042;47.620;12.188;2023-05-25T00:01:38;10.30;99.90
34829;DHT22;21042;47.620;12.188;2023-05-25T00:04:09;10.40;99.90
34829;DHT22;21042;47.620;12.188;2023-05-25T00:06:36;10.40;99.90
34829;DHT22;21042;47.620;12.188;2023-05-25T00:09:06;10.40;99.90
34829;DHT22;21042;47.620;12.188;2023-05-25T00:11:33;10.40;99.90
34829;DHT22;21042;47.620;12.188;2023-05-25T00:14:00;10.40;99.90
34829;DHT22;21042;47.620;12.188;2023-05-25T00:16:27;10.40;99.90
34829;DHT22;21042;47.620;12.188;2023-05-25T00:18:53;10.50;99.90
34829;DHT22;21042;47.620;12.188;2023-05-25T00:21:23;10.50;99.90
34829;DHT22;21042;47.620;12.188;2023-05-25T00:23:51;10.50;99.90
34829;DHT22;21042;47.620;12.188;2023-05-25T00:26:18;10.50;99.90
34829;DHT22;21042;47.620;12.188;2023-05-25T00:28:44;10.50;99.90
34829;DHT22;21042;47.620;12.188;2023-05-25T00:31:11;10.50;99.90
34829;DHT22;21042;47.620;12.188;2023-05-25T00:33:38;10.50;99.90
34829;DHT22;21042;47.620;12.188;2023-05-25T00:36:05;10.50;99.90
34829;DHT22;21042;47.620;12.188;2023-05-25T00:38:32;10.50;99.90
34829;DHT22;21042;47.620;12.188;2023-05-25T00:40:59;10.50;99.90
34829;DHT22;21042;47.620;12.188;2023-05-25T00:43:26;10.50;99.90
34829;DHT22;21042;47.620;12.188;2023-05-25T00:45:52;10.50;99.90
34829;DHT22;21042;47.620;12.188;2023-05-25T00:48:19;10.50;99.90
34829;DHT22;21042;47.620;12.188;2023-05-25T00:50:47;10.50;99.90
34829;DHT22;21042;47.620;12.188;2023-05-25T00:53:14;10.60;99.90
34829;DHT22;21042;47.620;12.188;2023-05-25T00:55:49;10.50;99.90
34829;DHT22;21042;47.620;12.188;2023-05-25T00:58:20;10.50;99.90
34829;DHT22;21042;47.620;12.188;2023-05-25T01:00:48;10.50;99.90
34829;DHT22;21042;47.620;12.188;2023-05-25T01:03:20;10.50;99.90
34829;DHT22;21042;47.620;12.188;2023-05-25T01:05:54;10.50;99.90
34829;DHT22;21042;47.620;12.188;2023-05-25T01:08:23;10.50;99.90
34829;DHT22;21042;47.620;12.188;2023-05-25T01:10:52;10.50;99.90
34829;DHT22;21042;47.620;12.188;2023-05-25T01:13:20;10.50;99.90
34829;DHT22;21042;47.620;12.188;2023-05-25T01:15:47;10.50;99.90
34829;DHT22;21042;47.620;12.188;2023-05-25T01:18:15;10.50;99.90
34829;DHT22;21042;47.620;12.188;2023-05-25T01:22:05;10.50;99.90
34829;DHT22;21042;47.620;12.188;2023-05-25T01:24:21;10.50;99.90
34829;DHT22;21042;47.620;12.188;2023-05-25T01:26:57;10.50;99.90
34829;DHT22;21042;47.620;12.188;2023-05-25T01:29:28;10.50;99.90
34829;DHT22;21042;47.620;12.188;2023-05-25T01:31:58;10.50;99.90
34829;DHT22;21042;47.620;12.188;2023-05-25T01:34:25;10.50;99.90
34829;DHT22;21042;47.620;12.188;2023-05-25T01:36:52;10.50;99.90
34829;DHT22;21042;47.620;12.188;2023-05-25T01:39:22;10.40;99.90
34829;DHT22;21042;47.620;12.188;2023-05-25T01:41:49;10.50;99.90
34829;DHT22;21042;47.620;12.188;2023-05-25T01:44:16;10.40;99.90
34829;DHT22;21042;47.620;12.188;2023-05-25T01:46:43;10.40;99.90
34829;DHT22;21042;47.620;12.188;2023-05-25T01:49:33;10.40;99.90
34829;DHT22;21042;47.620;12.188;2023-05-25T01:52:18;10.40;99.90
34829;DHT22;21042;47.620;12.188;2023-05-25T01:54:54;10.40;99.90
34829;DHT22;21042;47.620;12.188;2023-05-25T01:57:24;10.50;99.90
34829;DHT22;21042;47.620;12.188;2023-05-25T01:59:53;10.40;99.90
34829;DHT22;21042;47.620;12.188;2023-05-25T02:02:23;10.50;99.90
34829;DHT22;21042;47.620;12.188;2023-05-25T02:04:52;10.50;99.90
34829;DHT22;21042;47.620;12.188;2023-05-25T02:07:22;10.50;99.90
34829;DHT22;21042;47.620;12.188;2023-05-25T02:09:48;10.60;99.90
34829;DHT22;21042;47.620;12.188;2023-05-25T02:12:16;10.50;99.90
34829;DHT22;21042;47.620;12.188;2023-05-25T02:14:43;10.60;99.90
34829;DHT22;21042;47.620;12.188;2023-05-25T02:17:13;10.60;99.90
34829;DHT22;21042;47.620;12.188;2023-05-25T02:19:43;10.60;99.90
34829;DHT22;21042;47.620;12.188;2023-05-25T02:22:11;10.60;99.90
34829;DHT22;21042;47.620;12.188;2023-05-25T02:24:38;10.60;99.90
34829;DHT22;21042;47.620;12.188;2023-05-25T02:27:05;10.70;99.90
34829;DHT22;21042;47.620;12.188;2023-05-25T02:29:32;10.70;99.90
34829;DHT22;21042;47.620;12.188;2023-05-25T02:31:59;10.70;99.90
34829;DHT22;21042;47.620;12.188;2023-05-25T02:34:27;10.70;99.90
34829;DHT22;21042;47.620;12.188;2023-05-25T02:36:54;10.70;99.90
34829;DHT22;21042;47.620;12.188;2023-05-25T02:39:20;10.70;99.90
34829;DHT22;21042;47.620;12.188;2023-05-25T02:41:47;10.70;99.90
34829;DHT22;21042;47.620;12.188;2023-05-25T02:44:14;10.70;99.90
34829;DHT22;21042;47.620;12.188;2023-05-25T02:46:41;10.70;99.90
34829;DHT22;21042;47.620;12.188;2023-05-25T02:49:08;10.70;99.90
34829;DHT22;21042;47.620;12.188;2023-05-25T02:51:35;10.70;99.90
34829;DHT22;21042;47.620;12.188;2023-05-25T02:54:03;10.60;99.90
34829;DHT22;21042;47.620;12.188;2023-05-25T02:56:31;10.60;99.90
34829;DHT22;21042;47.620;12.188;2023-05-25T02:58:59;10.60;99.90
34829;DHT22;21042;47.620;12.188;2023-05-25T03:01:31;10.60;99.90
34829;DHT22;21042;47.620;12.188;2023-05-25T03:04:00;10.60;99.90
34829;DHT22;21042;47.620;12.188;2023-05-25T03:06:31;10.60;99.90
34829;DHT22;21042;47.620;12.188;2023-05-25T03:09:07;10.60;99.90
34829;DHT22;21042;47.620;12.188;2023-05-25T03:11:37;10.60;99.90
34829;DHT22;21042;47.620;12.188;2023-05-25T03:14:04;10.70;99.90
34829;DHT22;21042;47.620;12.188;2023-05-25T03:16:33;10.70;99.90
34829;DHT22;21042;47.620;12.188;2023-05-25T03:19:03;10.70;99.90
34829;DHT22;21042;47.620;12.188;2023-05-25T03:21:33;10.80;99.90
34829;DHT22;21042;47.620;12.188;2023-05-25T03:23:59;10.70;99.90
34829;DHT22;21042;47.620;12.188;2023-05-25T03:26:26;10.70;99.90
34829;DHT22;21042;47.620;12.188;2023-05-25T03:28:54;10.70;99.90
34829;DHT22;21042;47.620;12.188;2023-05-25T03:31:22;10.70;99.90
34829;DHT22;21042;47.620;12.188;2023-05-25T03:33:49;10.70;99.90
34829;DHT22;21042;47.620;12.188;2023-05-25T03:36:17;10.80;99.90
34829;DHT22;21042;47.620;12.188;2023-05-25T03:38:44;10.80;99.90
34829;DHT22;21042;47.620;12.188;2023-05-25T03:41:11;10.80;99.90
34829;DHT22;21042;47.620;12.188;2023-05-25T03:43:38;10.80;99.90
34829;DHT22;21042;47.620;12.188;2023-05-25T03:46:06;10.80;99.90
34829;DHT22;21042;47.620;12.188;2023-05-25T03:48:33;10.80;99.90
34829;DHT22;21042;47.620;12.188;2023-05-25T03:51:00;10.80;99.90
34829;DHT22;21042;47.620;12.188;2023-05-25T03:53:27;10.80;99.90
34829;DHT22;21042;47.620;12.188;2023-05-25T03:55:53;10.80;99.90
34829;DHT22;21042;47.620;12.188;2023-05-25T03:58:20;10.80;99.90
34829;DHT22;21042;47.620;12.188;2023-05-25T04:00:47;10.90;99.90
34829;DHT22;21042;47.620;12.188;2023-05-25T04:03:17;10.90;99.90
34829;DHT22;21042;47.620;12.188;2023-05-25T04:05:44;10.90;99.90
34829;DHT22;21042;47.620;12.188;2023-05-25T04:08:15;10.90;99.90
34829;DHT22;21042;47.620;12.188;2023-05-25T04:10:44;11.00;99.90
34829;DHT22;21042;47.620;12.188;2023-05-25T04:13:12;11.00;99.90
34829;DHT22;21042;47.620;12.188;2023-05-25T04:15:39;11.10;99.90
34829;DHT22;21042;47.620;12.188;2023-05-25T04:18:16;11.10;99.90
34829;DHT22;21042;47.620;12.188;2023-05-25T04:20:44;11.10;99.90
34829;DHT22;21042;47.620;12.188;2023-05-25T04:23:12;11.10;99.90
34829;DHT22;21042;47.620;12.188;2023-05-25T04:25:41;11.10;99.90
34829;DHT22;21042;47.620;12.188;2023-05-25T04:28:08;11.10;99.90
34829;DHT22;21042;47.620;12.188;2023-05-25T04:30:58;11.10;99.90
34829;DHT22;21042;47.620;12.188;2023-05-25T04:33:37;11.10;99.90
34829;DHT22;21042;47.620;12.188;2023-05-25T04:36:30;11.10;99.90
34829;DHT22;21042;47.620;12.188;2023-05-25T04:39:03;11.20;99.90
34829;DHT22;21042;47.620;12.188;2023-05-25T04:41:34;11.20;99.90
34829;DHT22;21042;47.620;12.188;2023-05-25T04:44:05;11.30;99.90
34829;DHT22;21042;47.620;12.188;2023-05-25T04:46:39;11.40;99.90
34829;DHT22;21042;47.620;12.188;2023-05-25T04:49:11;11.40;99.90
34829;DHT22;21042;47.620;12.188;2023-05-25T04:51:38;11.50;99.90
34829;DHT22;21042;47.620;12.188;2023-05-25T04:54:06;11.50;99.90
34829;DHT22;21042;47.620;12.188;2023-05-25T04:56:33;11.60;99.90
34829;DHT22;21042;47.620;12.188;2023-05-25T04:59:00;11.60;99.90
34829;DHT22;21042;47.620;12.188;2023-05-25T05:01:27;11.60;99.90
34829;DHT22;21042;47.620;12.188;2023-05-25T05:03:58;11.70;99.90
34829;DHT22;21042;47.620;12.188;2023-05-25T05:06:25;11.70;99.90
34829;DHT22;21042;47.620;12.188;2023-05-25T05:08:52;11.70;99.90
34829;DHT22;21042;47.620;12.188;2023-05-25T05:11:19;11.70;99.90
34829;DHT22;21042;47.620;12.188;2023-05-25T05:13:46;11.70;99.90
34829;DHT22;21042;47.620;12.188;2023-05-25T05:16:12;11.80;99.90
34829;DHT22;21042;47.620;12.188;2023-05-25T05:18:39;11.90;99.90
34829;DHT22;21042;47.620;12.188;2023-05-25T05:21:06;12.10;99.90
34829;DHT22;21042;47.620;12.188;2023-05-25T05:23:34;12.10;99.90
34829;DHT22;21042;47.620;12.188;2023-05-25T05:26:02;12.20;99.90
34829;DHT22;21042;47.620;12.188;2023-05-25T05:28:30;12.30;99.90
34829;DHT22;21042;47.620;12.188;2023-05-25T05:30:57;12.30;99.90
34829;DHT22;21042;47.620;12.188;2023-05-25T05:33:24;12.30;99.90
34829;DHT22;21042;47.620;12.188;2023-05-25T05:35:52;12.20;99.90
34829;DHT22;21042;47.620;12.188;2023-05-25T05:38:20;12.20;99.90
34829;DHT22;21042;47.620;12.188;2023-05-25T05:40:47;12.20;99.90
34829;DHT22;21042;47.620;12.188;2023-05-25T05:43:18;12.30;99.90
34829;DHT22;21042;47.620;12.188;2023-05-25T05:45:46;12.30;99.90
34829;DHT22;21042;47.620;12.188;2023-05-25T05:48:13;12.40;99.90
34829;DHT22;21042;47.620;12.188;2023-05-25T05:50:39;12.40;99.90
34829;DHT22;21042;47.620;12.188;2023-05-25T05:53:08;12.40;99.90
34829;DHT22;21042;47.620;12.188;2023-05-25T05:55:36;12.40;99.90
34829;DHT22;21042;47.620;12.188;2023-05-25T05:58:03;12.40;99.90
34829;DHT22;21042;47.620;12.188;2023-05-25T06:00:30;12.60;99.90
34829;DHT22;21042;47.620;12.188;2023-05-25T06:02:57;12.60;99.90
34829;DHT22;21042;47.620;12.188;2023-05-25T06:05:27;12.70;99.90
34829;DHT22;21042;47.620;12.188;2023-05-25T06:07:55;12.80;99.90
34829;DHT22;21042;47.620;12.188;2023-05-25T06:10:22;12.90;99.90
34829;DHT22;21042;47.620;12.188;2023-05-25T06:12:50;12.90;99.90
34829;DHT22;21042;47.620;12.188;2023-05-25T06:15:17;13.00;99.90
34829;DHT22;21042;47.620;12.188;2023-05-25T06:17:46;13.10;99.90
34829;DHT22;21042;47.620;12.188;2023-05-25T06:20:14;13.10;99.90
34829;DHT22;21042;47.620;12.188;2023-05-25T06:22:41;13.20;99.90
34829;DHT22;21042;47.620;12.188;2023-05-25T06:25:09;13.20;99.90
34829;DHT22;21042;47.620;12.188;2023-05-25T06:27:36;13.10;99.90
34829;DHT22;21042;47.620;12.188;2023-05-25T06:30:03;13.00;99.90
34829;DHT22;21042;47.620;12.188;2023-05-25T06:32:31;12.90;99.90
34829;DHT22;21042;47.620;12.188;2023-05-25T06:34:58;12.90;99.90
34829;DHT22;21042;47.620;12.188;2023-05-25T06:37:26;12.90;99.90
34829;DHT22;21042;47.620;12.188;2023-05-25T06:39:53;12.80;99.90
34829;DHT22;21042;47.620;12.188;2023-05-25T06:42:23;12.80;99.90
34829;DHT22;21042;47.620;12.188;2023-05-25T06:44:54;13.00;99.90
34829;DHT22;21042;47.620;12.188;2023-05-25T06:47:21;13.10;99.90
34829;DHT22;21042;47.620;12.188;2023-05-25T06:49:48;13.10;99.90
34829;DHT22;21042;47.620;12.188;2023-05-25T06:52:15;13.10;99.90
34829;DHT22;21042;47.620;12.188;2023-05-25T06:54:42;13.10;99.90
34829;DHT22;21042;47.620;12.188;2023-05-25T06:57:09;13.10;99.90
34829;DHT22;21042;47.620;12.188;2023-05-25T06:59:35;13.10;99.90
34829;DHT22;21042;47.620;12.188;2023-05-25T07:02:02;13.00;99.90
34829;DHT22;21042;47.620;12.188;2023-05-25T07:04:29;13.00;99.90
34829;DHT22;21042;47.620;12.188;2023-05-25T07:06:56;13.10;99.90
34829;DHT22;21042;47.620;12.188;2023-05-25T07:09:23;13.20;99.90
34829;DHT22;21042;47.620;12.188;2023-05-25T07:11:49;13.20;99.90
34829;DHT22;21042;47.620;12.188;2023-05-25T07:14:16;13.20;99.90
34829;DHT22;21042;47.620;12.188;2023-05-25T07:16:43;13.10;99.90
34829;DHT22;21042;47.620;12.188;2023-05-25T07:19:13;13.30;99.90
34829;DHT22;21042;47.620;12.188;2023-05-25T07:21:40;13.40;99.90
34829;DHT22;21042;47.620;12.188;2023-05-25T07:24:07;13.60;99.90
34829;DHT22;21042;47.620;12.188;2023-05-25T07:26:34;13.80;99.90
34829;DHT22;21042;47.620;12.188;2023-05-25T07:29:02;13.90;99.90
34829;DHT22;21042;47.620;12.188;2023-05-25T07:31:28;14.00;99.90
34829;DHT22;21042;47.620;12.188;2023-05-25T07:33:55;13.90;99.90
34829;DHT22;21042;47.620;12.188;2023-05-25T07:36:22;13.90;99.90
34829;DHT22;21042;47.620;12.188;2023-05-25T07:38:50;13.90;99.90
34829;DHT22;21042;47.620;12.188;2023-05-25T07:41:17;13.80;99.90
34829;DHT22;21042;47.620;12.188;2023-05-25T07:43:44;13.80;99.90
34829;DHT22;21042;47.620;12.188;2023-05-25T07:46:11;13.70;99.90
34829;DHT22;21042;47.620;12.188;2023-05-25T07:48:38;13.70;99.90
34829;DHT22;21042;47.620;12.188;2023-05-25T07:51:04;13.90;99.90
34829;DHT22;21042;47.620;12.188;2023-05-25T07:53:31;14.10;99.90
34829;DHT22;21042;47.620;12.188;2023-05-25T07:55:58;14.40;99.90
34829;DHT22;21042;47.620;12.188;2023-05-25T07:58:25;14.60;99.90
34829;DHT22;21042;47.620;12.188;2023-05-25T08:00:51;14.90;99.90
34829;DHT22;21042;47.620;12.188;2023-05-25T08:03:19;15.10;99.90
34829;DHT22;21042;47.620;12.188;2023-05-25T08:05:57;15.30;99.90
34829;DHT22;21042;47.620;12.188;2023-05-25T08:08:24;15.30;99.90
34829;DHT22;21042;47.620;12.188;2023-05-25T08:10:51;15.30;99.90
34829;DHT22;21042;47.620;12.188;2023-05-25T08:13:17;15.50;99.90
34829;DHT22;21042;47.620;12.188;2023-05-25T08:15:44;15.70;99.90
34829;DHT22;21042;47.620;12.188;2023-05-25T08:18:11;15.70;99.90
34829;DHT22;21042;47.620;12.188;2023-05-25T08:20:38;15.90;99.90
34829;DHT22;21042;47.620;12.188;2023-05-25T08:23:05;15.80;99.90
34829;DHT22;21042;47.620;12.188;2023-05-25T08:25:32;16.00;99.90
34829;DHT22;21042;47.620;12.188;2023-05-25T08:27:59;16.30;99.90
34829;DHT22;21042;47.620;12.188;2023-05-25T08:30:26;16.40;99.90
34829;DHT22;21042;47.620;12.188;2023-05-25T08:32:53;16.50;99.90
34829;DHT22;21042;47.620;12.188;2023-05-25T08:35:20;16.50;99.90
34829;DHT22;21042;47.620;12.188;2023-05-25T08:37:46;16.70;99.90
34829;DHT22;21042;47.620;12.188;2023-05-25T08:40:15;16.80;99.90
34829;DHT22;21042;47.620;12.188;2023-05-25T08:42:43;16.90;99.90
34829;DHT22;21042;47.620;12.188;2023-05-25T08:45:10;16.90;99.90
34829;DHT22;21042;47.620;12.188;2023-05-25T08:47:58;16.90;99.90
34829;DHT22;21042;47.620;12.188;2023-05-25T08:50:26;16.90;99.90
34829;DHT22;21042;47.620;12.188;2023-05-25T08:52:54;17.10;99.90
34829;DHT22;21042;47.620;12.188;2023-05-25T08:55:25;17.30;99.90
34829;DHT22;21042;47.620;12.188;2023-05-25T08:58:01;17.40;99.90
34829;DHT22;21042;47.620;12.188;2023-05-25T09:00:33;17.60;99.90
34829;DHT22;21042;47.620;12.188;2023-05-25T09:03:10;17.50;99.90
34829;DHT22;21042;47.620;12.188;2023-05-25T09:05:39;17.30;99.90
34829;DHT22;21042;47.620;12.188;2023-05-25T09:08:06;17.50;99.90
34829;DHT22;21042;47.620;12.188;2023-05-25T09:10:35;17.60;99.90
34829;DHT22;21042;47.620;12.188;2023-05-25T09:13:02;17.50;99.90
34829;DHT22;21042;47.620;12.188;2023-05-25T09:15:47;17.50;99.90
34829;DHT22;21042;47.620;12.188;2023-05-25T09:18:14;17.60;99.90
34829;DHT22;21042;47.620;12.188;2023-05-25T09:20:41;17.80;99.90
34829;DHT22;21042;47.620;12.188;2023-05-25T09:23:12;18.00;99.90
34829;DHT22;21042;47.620;12.188;2023-05-25T09:25:40;18.20;99.90
34829;DHT22;21042;47.620;12.188;2023-05-25T09:28:07;18.20;99.90
34829;DHT22;21042;47.620;12.188;2023-05-25T09:30:52;18.20;99.90
34829;DHT22;21042;47.620;12.188;2023-05-25T09:33:19;18.20;99.90
34829;DHT22;21042;47.620;12.188;2023-05-25T09:35:46;18.30;99.90
34829;DHT22;21042;47.620;12.188;2023-05-25T09:38:16;18.30;99.90
34829;DHT22;21042;47.620;12.188;2023-05-25T09:40:44;18.10;99.90
34829;DHT22;21042;47.620;12.188;2023-05-25T09:43:12;18.20;99.90
34829;DHT22;21042;47.620;12.188;2023-05-25T09:45:54;18.30;99.90
34829;DHT22;21042;47.620;12.188;2023-05-25T09:48:21;18.50;99.90
34829;DHT22;21042;47.620;12.188;2023-05-25T09:50:49;18.80;99.90
34829;DHT22;21042;47.620;12.188;2023-05-25T09:53:16;19.10;99.90
34829;DHT22;21042;47.620;12.188;2023-05-25T09:55:43;19.20;99.90
34829;DHT22;21042;47.620;12.188;2023-05-25T09:58:23;19.20;99.90
34829;DHT22;21042;47.620;12.188;2023-05-25T10:00:53;19.40;99.90
34829;DHT22;21042;47.620;12.188;2023-05-25T10:03:20;19.70;99.90
34829;DHT22;21042;47.620;12.188;2023-05-25T10:05:47;19.80;99.90
34829;DHT22;21042;47.620;12.188;2023-05-25T10:08:16;19.60;99.90
34829;DHT22;21042;47.620;12.188;2023-05-25T10:10:45;19.50;99.90
34829;DHT22;21042;47.620;12.188;2023-05-25T10:13:19;19.50;99.90
34829;DHT22;21042;47.620;12.188;2023-05-25T10:15:47;19.50;99.90
34829;DHT22;21042;47.620;12.188;2023-05-25T10:18:23;19.40;99.90
34829;DHT22;21042;47.620;12.188;2023-05-25T10:20:59;19.20;99.90
34829;DHT22;21042;47.620;12.188;2023-05-25T10:23:38;19.00;99.90
34829;DHT22;21042;47.620;12.188;2023-05-25T10:26:08;18.90;99.90
34829;DHT22;21042;47.620;12.188;2023-05-25T10:28:36;18.70;99.90
34829;DHT22;21042;47.620;12.188;2023-05-25T10:31:05;18.70;99.90
34829;DHT22;21042;47.620;12.188;2023-05-25T10:33:32;18.80;99.90
34829;DHT22;21042;47.620;12.188;2023-05-25T10:36:01;19.10;99.90
34829;DHT22;21042;47.620;12.188;2023-05-25T10:38:34;19.10;99.90
34829;DHT22;21042;47.620;12.188;2023-05-25T10:41:01;19.10;99.90
34829;DHT22;21042;47.620;12.188;2023-05-25T10:43:30;19.10;99.90
34829;DHT22;21042;47.620;12.188;2023-05-25T10:45:57;19.20;99.90
34829;DHT22;21042;47.620;12.188;2023-05-25T10:48:37;19.00;99.90
34829;DHT22;21042;47.620;12.188;2023-05-25T10:51:04;19.20;99.90
34829;DHT22;21042;47.620;12.188;2023-05-25T10:53:35;19.20;99.90
34829;DHT22;21042;47.620;12.188;2023-05-25T10:56:04;19.10;99.90
34829;DHT22;21042;47.620;12.188;2023-05-25T10:58:31;19.10;99.90
34829;DHT22;21042;47.620;12.188;2023-05-25T11:01:06;19.10;99.90
34829;DHT22;21042;47.620;12.188;2023-05-25T11:09:03;19.20;99.90
34829;DHT22;21042;47.620;12.188;2023-05-25T11:14:30;19.30;99.90
34829;DHT22;21042;47.620;12.188;2023-05-25T11:19:58;19.50;99.90
34829;DHT22;21042;47.620;12.188;2023-05-25T11:22:32;19.50;99.90
34829;DHT22;21042;47.620;12.188;2023-05-25T11:25:02;19.50;99.90
34829;DHT22;21042;47.620;12.188;2023-05-25T11:27:50;19.50;99.90
34829;DHT22;21042;47.620;12.188;2023-05-25T11:30:19;19.50;99.90
34829;DHT22;21042;47.620;12.188;2023-05-25T11:32:53;19.40;99.90
34829;DHT22;21042;47.620;12.188;2023-05-25T11:35:20;19.40;99.90
34829;DHT22;21042;47.620;12.188;2023-05-25T11:37:50;19.40;99.90
34829;DHT22;21042;47.620;12.188;2023-05-25T11:40:21;19.40;99.90
34829;DHT22;21042;47.620;12.188;2023-05-25T11:42:50;19.30;99.90
34829;DHT22;21042;47.620;12.188;2023-05-25T11:45:21;19.30;99.90
34829;DHT22;21042;47.620;12.188;2023-05-25T11:47:48;19.40;99.90
34829;DHT22;21042;47.620;12.188;2023-05-25T11:50:15;19.40;99.90
34829;DHT22;21042;47.620;12.188;2023-05-25T11:52:42;19.50;99.90
34829;DHT22;21042;47.620;12.188;2023-05-25T11:55:13;19.60;99.90
34829;DHT22;21042;47.620;12.188;2023-05-25T11:57:40;19.60;99.90
34829;DHT22;21042;47.620;12.188;2023-05-25T12:00:07;19.70;99.90
34829;DHT22;21042;47.620;12.188;2023-05-25T12:02:39;19.70;99.90
34829;DHT22;21042;47.620;12.188;2023-05-25T12:05:07;19.80;99.90
34829;DHT22;21042;47.620;12.188;2023-05-25T12:07:42;19.90;99.90
34829;DHT22;21042;47.620;12.188;2023-05-25T12:10:11;20.00;99.90
34829;DHT22;21042;47.620;12.188;2023-05-25T12:12:45;20.10;99.90
34829;DHT22;21042;47.620;12.188;2023-05-25T12:15:14;20.20;99.90
34829;DHT22;21042;47.620;12.188;2023-05-25T12:17:46;20.30;99.90
34829;DHT22;21042;47.620;12.188;2023-05-25T12:20:15;20.20;99.90
34829;DHT22;21042;47.620;12.188;2023-05-25T12:22:43;20.20;99.90
34829;DHT22;21042;47.620;12.188;2023-05-25T12:25:12;20.20;99.90
34829;DHT22;21042;47.620;12.188;2023-05-25T12:27:39;20.20;99.90
34829;DHT22;21042;47.620;12.188;2023-05-25T12:30:09;20.20;99.90
34829;DHT22;21042;47.620;12.188;2023-05-25T12:33:00;20.20;99.90
34829;DHT22;21042;47.620;12.188;2023-05-25T12:35:43;20.10;99.90
34829;DHT22;21042;47.620;12.188;2023-05-25T12:38:12;20.10;99.90
34829;DHT22;21042;47.620;12.188;2023-05-25T12:40:40;20.10;99.90
34829;DHT22;21042;47.620;12.188;2023-05-25T12:43:08;20.00;99.90
34829;DHT22;21042;47.620;12.188;2023-05-25T12:45:41;19.90;99.90
34829;DHT22;21042;47.620;12.188;2023-05-25T12:48:08;19.90;99.90
34829;DHT22;21042;47.620;12.188;2023-05-25T12:50:36;19.90;99.90
34829;DHT22;21042;47.620;12.188;2023-05-25T12:53:03;19.90;99.90
34829;DHT22;21042;47.620;12.188;2023-05-25T12:55:32;19.90;99.90
34829;DHT22;21042;47.620;12.188;2023-05-25T12:58:04;19.80;99.90
34829;DHT22;21042;47.620;12.188;2023-05-25T13:00:36;19.80;99.90
34829;DHT22;21042;47.620;12.188;2023-05-25T13:03:04;19.90;99.90
34829;DHT22;21042;47.620;12.188;2023-05-25T13:05:36;20.00;99.90
34829;DHT22;21042;47.620;12.188;2023-05-25T13:08:04;20.00;99.90
34829;DHT22;21042;47.620;12.188;2023-05-25T13:10:32;20.00;99.90
34829;DHT22;21042;47.620;12.188;2023-05-25T13:12:59;20.00;99.90
34829;DHT22;21042;47.620;12.188;2023-05-25T13:15:27;20.00;99.90
34829;DHT22;21042;47.620;12.188;2023-05-25T13:17:55;20.00;99.90
34829;DHT22;21042;47.620;12.188;2023-05-25T13:20:25;19.90;99.90
34829;DHT22;21042;47.620;12.188;2023-05-25T13:22:53;20.10;99.90
34829;DHT22;21042;47.620;12.188;2023-05-25T13:25:23;20.20;99.90
34829;DHT22;21042;47.620;12.188;2023-05-25T13:27:52;20.10;99.90
34829;DHT22;21042;47.620;12.188;2023-05-25T13:30:21;20.10;99.90
34829;DHT22;21042;47.620;12.188;2023-05-25T13:32:48;20.20;99.90
34829;DHT22;21042;47.620;12.188;2023-05-25T13:35:18;20.10;99.90
34829;DHT22;21042;47.620;12.188;2023-05-25T13:37:49;20.30;99.90
34829;DHT22;21042;47.620;12.188;2023-05-25T13:40:17;20.40;99.90
34829;DHT22;21042;47.620;12.188;2023-05-25T13:42:44;20.20;99.90
34829;DHT22;21042;47.620;12.188;2023-05-25T13:45:11;20.30;99.90
34829;DHT22;21042;47.620;12.188;2023-05-25T13:47:37;20.20;99.90
34829;DHT22;21042;47.620;12.188;2023-05-25T13:50:05;20.10;99.90
34829;DHT22;21042;47.620;12.188;2023-05-25T13:52:32;20.20;99.90
34829;DHT22;21042;47.620;12.188;2023-05-25T13:54:59;20.20;99.90
34829;DHT22;21042;47.620;12.188;2023-05-25T13:57:26;20.20;99.90
34829;DHT22;21042;47.620;12.188;2023-05-25T13:59:53;20.10;99.90
34829;DHT22;21042;47.620;12.188;2023-05-25T14:02:19;20.20;99.90
34829;DHT22;21042;47.620;12.188;2023-05-25T14:04:46;20.10;99.90
34829;DHT22;21042;47.620;12.188;2023-05-25T14:07:13;20.10;99.90
34829;DHT22;21042;47.620;12.188;2023-05-25T14:09:40;20.10;99.90
34829;DHT22;21042;47.620;12.188;2023-05-25T14:12:07;20.10;99.90
34829;DHT22;21042;47.620;12.188;2023-05-25T14:14:33;20.20;99.90
34829;DHT22;21042;47.620;12.188;2023-05-25T14:17:00;20.20;99.90
34829;DHT22;21042;47.620;12.188;2023-05-25T14:19:27;20.10;99.90
34829;DHT22;21042;47.620;12.188;2023-05-25T14:21:54;20.10;99.90
34829;DHT22;21042;47.620;12.188;2023-05-25T14:24:24;20.10;99.90
34829;DHT22;21042;47.620;12.188;2023-05-25T14:26:50;20.10;99.90
34829;DHT22;21042;47.620;12.188;2023-05-25T14:29:17;20.00;99.90
34829;DHT22;21042;47.620;12.188;2023-05-25T14:31:44;20.10;99.90
34829;DHT22;21042;47.620;12.188;2023-05-25T14:34:11;20.10;99.90
34829;DHT22;21042;47.620;12.188;2023-05-25T14:36:38;20.10;99.90
34829;DHT22;21042;47.620;12.188;2023-05-25T14:39:05;20.10;99.90
34829;DHT22;21042;47.620;12.188;2023-05-25T14:41:32;20.10;99.90
34829;DHT22;21042;47.620;12.188;2023-05-25T14:43:58;20.00;99.90
34829;DHT22;21042;47.620;12.188;2023-05-25T14:46:25;19.90;99.90
34829;DHT22;21042;47.620;12.188;2023-05-25T14:48:52;19.90;99.90
34829;DHT22;21042;47.620;12.188;2023-05-25T14:51:19;19.90;99.90
34829;DHT22;21042;47.620;12.188;2023-05-25T14:53:46;19.90;99.90
34829;DHT22;21042;47.620;12.188;2023-05-25T14:56:13;19.80;99.90
34829;DHT22;21042;47.620;12.188;2023-05-25T14:58:39;20.00;99.90
34829;DHT22;21042;47.620;12.188;2023-05-25T15:01:06;20.00;99.90
34829;DHT22;21042;47.620;12.188;2023-05-25T15:03:33;19.90;99.90
34829;DHT22;21042;47.620;12.188;2023-05-25T15:06:00;19.90;99.90
34829;DHT22;21042;47.620;12.188;2023-05-25T15:08:27;19.90;99.90
34829;DHT22;21042;47.620;12.188;2023-05-25T15:10:54;19.80;99.90
34829;DHT22;21042;47.620;12.188;2023-05-25T15:13:21;19.90;99.90
34829;DHT22;21042;47.620;12.188;2023-05-25T15:15:48;19.90;99.90
34829;DHT22;21042;47.620;12.188;2023-05-25T15:18:20;19.80;99.90
34829;DHT22;21042;47.620;12.188;2023-05-25T15:20:46;19.80;99.90
34829;DHT22;21042;47.620;12.188;2023-05-25T15:23:13;19.80;99.90
34829;DHT22;21042;47.620;12.188;2023-05-25T15:25:40;19.80;99.90
34829;DHT22;21042;47.620;12.188;2023-05-25T15:28:07;19.80;99.90
34829;DHT22;21042;47.620;12.188;2023-05-25T15:30:33;20.00;99.90
34829;DHT22;21042;47.620;12.188;2023-05-25T15:33:01;20.10;99.90
34829;DHT22;21042;47.620;12.188;2023-05-25T15:35:28;20.20;99.90
34829;DHT22;21042;47.620;12.188;2023-05-25T15:37:58;20.40;99.90